Time;durP1;ratioP1;P1;durP2;ratioP2;P2;SDS_P1;SDS_P2;PMS_P1;PMS_P2;Temp;Humidity;BMP_temperature;BMP_pressure;BME280_temperature;BME280_humidity;BME280_pressure;Samples;Min_cycle;Max_cycle;Signal;HPM_P1;HPM_P2
2022/03/12 00:00:24;;;;;;;;;;;3.60;90.60;;;;;;5085820;28;19971;-69
2022/03/12 00:02:51;;;;;;;;;;;3.70;90.70;;;;;;5071677;28;20004;-69
2022/03/12 00:05:20;;;;;;;;;;;3.70;90.60;;;;;;5071757;28;20426;-69
2022/03/12 00:07:47;;;;;;;;;;;3.70;90.40;;;;;;5073784;28;20900;-69
2022/03/12 00:10:13;;;;;;;;;;;3.80;90.30;;;;;;5090298;28;19967;-69
2022/03/12 00:12:41;;;;;;;;;;;3.90;90.00;;;;;;5072764;28;20027;-69
2022/03/12 00:15:09;;;;;;;;;;;4.00;89.90;;;;;;5071759;28;20436;-69
2022/03/12 00:17:38;;;;;;;;;;;4.10;89.40;;;;;;5071153;28;20544;-69
2022/03/12 00:20:12;;;;;;;;;;;4.20;89.10;;;;;;5073951;28;20345;-69
2022/03/12 00:22:46;;;;;;;;;;;4.30;88.50;;;;;;5088212;28;20382;-69
2022/03/12 00:25:14;;;;;;;;;;;4.40;88.40;;;;;;5086185;28;19930;-69
2022/03/12 00:27:42;;;;;;;;;;;4.50;88.30;;;;;;5070957;28;19931;-69
2022/03/12 00:30:10;;;;;;;;;;;4.50;88.20;;;;;;5072047;28;19973;-69
2022/03/12 00:32:37;;;;;;;;;;;4.40;88.10;;;;;;5084322;28;19924;-69
2022/03/12 00:35:04;;;;;;;;;;;4.40;88.10;;;;;;5080871;28;19934;-69
2022/03/12 00:37:31;;;;;;;;;;;4.40;88.30;;;;;;5074749;28;19968;-69
2022/03/12 00:39:58;;;;;;;;;;;4.40;88.20;;;;;;5079136;28;19967;-69
2022/03/12 00:42:25;;;;;;;;;;;4.30;88.10;;;;;;5071400;28;19929;-69
2022/03/12 00:44:51;;;;;;;;;;;4.30;88.10;;;;;;5070227;28;19939;-69
2022/03/12 00:47:18;;;;;;;;;;;4.30;88.40;;;;;;5070591;28;19928;-69
2022/03/12 00:49:46;;;;;;;;;;;4.30;88.30;;;;;;5070815;28;19932;-69
2022/03/12 00:52:13;;;;;;;;;;;4.30;88.30;;;;;;5070856;28;19932;-69
2022/03/12 00:54:39;;;;;;;;;;;4.20;88.40;;;;;;5071126;28;20031;-69
2022/03/12 00:57:10;;;;;;;;;;;4.20;88.30;;;;;;5070912;28;20003;-69
2022/03/12 00:59:40;;;;;;;;;;;4.20;88.30;;;;;;5079463;28;20006;-69
2022/03/12 01:02:11;;;;;;;;;;;4.20;88.40;;;;;;5076459;28;20558;-69
2022/03/12 01:04:38;;;;;;;;;;;4.20;88.70;;;;;;5086180;28;20378;-69
2022/03/12 01:07:05;;;;;;;;;;;4.20;88.50;;;;;;5070895;28;19935;-69
2022/03/12 01:09:31;;;;;;;;;;;4.10;88.80;;;;;;5085184;28;20507;-69
2022/03/12 01:11:58;;;;;;;;;;;4.10;88.80;;;;;;5071176;28;20470;-69
2022/03/12 01:14:25;;;;;;;;;;;4.00;88.80;;;;;;5070811;28;19929;-69
2022/03/12 01:16:55;;;;;;;;;;;4.00;88.70;;;;;;5084227;28;19924;-69
2022/03/12 01:19:22;;;;;;;;;;;4.00;88.80;;;;;;5091209;28;19950;-69
2022/03/12 01:21:48;;;;;;;;;;;4.00;88.80;;;;;;5090460;28;20027;-69
2022/03/12 01:24:15;;;;;;;;;;;4.00;89.00;;;;;;5086918;28;19931;-69
2022/03/12 01:26:47;;;;;;;;;;;4.00;89.00;;;;;;5076918;28;19968;-69
2022/03/12 01:29:14;;;;;;;;;;;4.00;89.00;;;;;;5088344;28;19924;-69
2022/03/12 01:31:40;;;;;;;;;;;4.00;89.20;;;;;;5075091;28;19924;-69
2022/03/12 01:34:09;;;;;;;;;;;4.00;88.80;;;;;;5083168;28;19933;-69
2022/03/12 01:36:36;;;;;;;;;;;4.10;88.80;;;;;;5074117;28;20374;-69
2022/03/12 01:39:03;;;;;;;;;;;4.10;88.60;;;;;;5073635;28;19944;-69
2022/03/12 01:41:30;;;;;;;;;;;4.10;88.70;;;;;;5088093;28;20529;-69
2022/03/12 01:43:58;;;;;;;;;;;4.10;88.50;;;;;;5074322;28;19924;-69
2022/03/12 01:46:33;;;;;;;;;;;4.10;88.60;;;;;;5077694;28;19971;-69
2022/03/12 01:49:03;;;;;;;;;;;4.10;88.60;;;;;;5076904;28;19924;-69
2022/03/12 01:51:33;;;;;;;;;;;4.10;88.50;;;;;;5072777;28;20418;-69
2022/03/12 01:54:01;;;;;;;;;;;4.10;88.50;;;;;;5082361;28;19928;-69
2022/03/12 01:56:30;;;;;;;;;;;4.00;88.30;;;;;;5092599;28;19927;-69
2022/03/12 01:59:01;;;;;;;;;;;4.10;88.20;;;;;;5071782;28;19968;-69
2022/03/12 02:01:29;;;;;;;;;;;4.00;88.10;;;;;;5096016;28;19924;-69
2022/03/12 02:03:56;;;;;;;;;;;4.00;88.20;;;;;;5088358;28;19924;-69
2022/03/12 02:06:24;;;;;;;;;;;4.00;88.30;;;;;;5085336;28;20024;-69
2022/03/12 02:08:53;;;;;;;;;;;4.00;88.30;;;;;;5091348;28;19930;-69
2022/03/12 02:11:25;;;;;;;;;;;4.00;88.30;;;;;;5083696;28;20379;-69
2022/03/12 02:14:15;;;;;;;;;;;4.00;88.30;;;;;;5077053;28;19964;-69
2022/03/12 02:16:45;;;;;;;;;;;3.90;88.00;;;;;;5079785;28;20452;-69
2022/03/12 02:19:12;;;;;;;;;;;3.90;88.10;;;;;;5073892;28;20011;-69
2022/03/12 02:21:59;;;;;;;;;;;3.90;88.40;;;;;;5073896;28;19924;-69
2022/03/12 02:24:27;;;;;;;;;;;3.80;88.20;;;;;;5077812;28;20023;-69
2022/03/12 02:26:54;;;;;;;;;;;3.90;88.30;;;;;;5082652;28;20381;-69
2022/03/12 02:29:22;;;;;;;;;;;3.90;88.10;;;;;;5073702;28;20023;-69
2022/03/12 02:31:50;;;;;;;;;;;3.80;88.70;;;;;;5081821;28;19930;-69
2022/03/12 02:34:22;;;;;;;;;;;3.80;88.50;;;;;;5078885;28;20382;-69
2022/03/12 02:36:50;;;;;;;;;;;3.70;88.70;;;;;;5081411;28;20534;-69
2022/03/12 02:39:19;;;;;;;;;;;3.70;88.80;;;;;;5082864;28;19930;-69
2022/03/12 02:41:49;;;;;;;;;;;3.70;88.80;;;;;;5081407;28;19925;-69
2022/03/12 02:44:20;;;;;;;;;;;3.70;88.80;;;;;;5083473;28;19931;-70
2022/03/12 02:47:05;;;;;;;;;;;3.70;88.90;;;;;;5075245;28;19924;-69
2022/03/12 02:49:35;;;;;;;;;;;3.70;89.00;;;;;;5073911;28;19925;-69
2022/03/12 02:52:05;;;;;;;;;;;3.70;88.80;;;;;;5072743;28;19925;-69
2022/03/12 02:54:32;;;;;;;;;;;3.60;88.80;;;;;;5073190;28;19998;-69
2022/03/12 02:57:01;;;;;;;;;;;3.60;88.80;;;;;;5084217;28;19928;-69
2022/03/12 02:59:28;;;;;;;;;;;3.60;89.00;;;;;;5074473;28;19979;-69
2022/03/12 03:02:00;;;;;;;;;;;3.60;88.80;;;;;;5091588;28;19955;-69
2022/03/12 03:04:27;;;;;;;;;;;3.60;89.10;;;;;;5073071;28;19931;-69
2022/03/12 03:07:03;;;;;;;;;;;3.60;89.00;;;;;;5071160;28;19931;-69
2022/03/12 03:09:29;;;;;;;;;;;3.60;88.80;;;;;;5071542;28;20020;-70
2022/03/12 03:11:57;;;;;;;;;;;3.60;88.80;;;;;;5071694;28;19975;-69
2022/03/12 03:14:26;;;;;;;;;;;3.60;89.00;;;;;;5078981;28;20335;-69
2022/03/12 03:16:53;;;;;;;;;;;3.60;89.00;;;;;;5078981;28;19924;-69
2022/03/12 03:19:26;;;;;;;;;;;3.50;88.80;;;;;;5087551;28;19969;-69
2022/03/12 03:21:53;;;;;;;;;;;3.50;89.70;;;;;;5086493;28;19925;-69
2022/03/12 03:24:21;;;;;;;;;;;3.50;89.00;;;;;;5082152;28;20326;-69
2022/03/12 03:26:47;;;;;;;;;;;3.40;89.20;;;;;;5075926;28;19925;-69
2022/03/12 03:29:15;;;;;;;;;;;3.40;89.40;;;;;;5074684;28;19928;-69
2022/03/12 03:31:41;;;;;;;;;;;3.30;89.40;;;;;;5076943;28;19924;-69
2022/03/12 03:34:11;;;;;;;;;;;3.20;89.50;;;;;;5085978;28;20477;-69
2022/03/12 03:36:38;;;;;;;;;;;3.10;89.70;;;;;;5071510;28;19929;-69
2022/03/12 03:39:06;;;;;;;;;;;3.00;90.00;;;;;;5078535;28;19992;-69
2022/03/12 03:41:33;;;;;;;;;;;2.90;90.00;;;;;;5070307;28;19931;-69
2022/03/12 03:44:05;;;;;;;;;;;2.90;90.00;;;;;;5079641;28;20019;-69
2022/03/12 03:46:32;;;;;;;;;;;2.80;90.20;;;;;;5074204;28;19932;-69
2022/03/12 03:48:59;;;;;;;;;;;2.70;90.20;;;;;;5084850;28;19924;-70
2022/03/12 03:51:26;;;;;;;;;;;2.70;90.30;;;;;;5082638;28;19924;-69
2022/03/12 03:53:53;;;;;;;;;;;2.60;90.40;;;;;;5075768;28;19931;-69
2022/03/12 03:56:20;;;;;;;;;;;2.50;90.40;;;;;;5082609;28;20004;-69
2022/03/12 03:58:47;;;;;;;;;;;2.50;90.50;;;;;;5089758;28;20023;-69
2022/03/12 04:01:18;;;;;;;;;;;2.40;90.50;;;;;;5071067;28;19967;-69
2022/03/12 04:03:51;;;;;;;;;;;2.30;90.50;;;;;;5079354;28;19982;-69
2022/03/12 04:06:20;;;;;;;;;;;2.20;90.60;;;;;;5078402;28;19932;-69
2022/03/12 04:08:47;;;;;;;;;;;2.20;90.70;;;;;;5085063;28;19967;-69
2022/03/12 04:11:17;;;;;;;;;;;2.10;90.80;;;;;;5070905;28;20335;-69
2022/03/12 04:13:44;;;;;;;;;;;2.10;90.90;;;;;;5071850;28;20023;-69
2022/03/12 04:16:11;;;;;;;;;;;1.90;91.00;;;;;;5072109;28;20018;-69
2022/03/12 04:18:38;;;;;;;;;;;1.90;91.00;;;;;;5085330;28;20015;-69
2022/03/12 04:21:06;;;;;;;;;;;1.80;91.10;;;;;;5082583;28;19927;-69
2022/03/12 04:23:33;;;;;;;;;;;1.80;91.20;;;;;;5087556;28;19924;-69
2022/03/12 04:26:02;;;;;;;;;;;1.80;91.30;;;;;;5090648;28;19924;-69
2022/03/12 04:28:33;;;;;;;;;;;1.80;91.30;;;;;;5073247;28;19925;-69
2022/03/12 04:31:00;;;;;;;;;;;1.80;91.20;;;;;;5084408;28;19924;-69
2022/03/12 04:33:28;;;;;;;;;;;1.80;91.30;;;;;;5072038;28;19982;-69
2022/03/12 04:35:56;;;;;;;;;;;1.70;91.30;;;;;;5071362;28;20328;-69
2022/03/12 04:38:23;;;;;;;;;;;1.70;91.40;;;;;;5074108;28;19924;-69
2022/03/12 04:40:50;;;;;;;;;;;1.60;91.50;;;;;;5090238;28;19924;-69
2022/03/12 04:43:16;;;;;;;;;;;1.50;91.50;;;;;;5076671;28;20408;-69
2022/03/12 04:45:44;;;;;;;;;;;1.50;91.60;;;;;;5076729;28;19974;-69
2022/03/12 04:48:15;;;;;;;;;;;1.40;91.70;;;;;;5070660;28;19925;-69
2022/03/12 04:50:42;;;;;;;;;;;1.40;91.70;;;;;;5089037;28;19924;-69
2022/03/12 04:53:08;;;;;;;;;;;1.30;91.70;;;;;;5071580;28;20410;-69
2022/03/12 04:55:39;;;;;;;;;;;1.30;91.90;;;;;;5078968;28;19924;-69
2022/03/12 04:58:07;;;;;;;;;;;1.20;91.90;;;;;;5080428;28;20020;-69
2022/03/12 05:00:36;;;;;;;;;;;1.10;92.00;;;;;;5083654;28;20015;-69
2022/03/12 05:03:18;;;;;;;;;;;1.10;92.20;;;;;;5071517;28;19924;-69
2022/03/12 05:05:49;;;;;;;;;;;1.10;92.10;;;;;;5085480;28;19924;-69
2022/03/12 05:08:20;;;;;;;;;;;1.10;92.10;;;;;;5070823;28;20007;-69
2022/03/12 05:10:50;;;;;;;;;;;1.10;92.10;;;;;;5084846;28;19930;-69
2022/03/12 05:13:23;;;;;;;;;;;1.10;92.20;;;;;;5070326;28;19928;-69
2022/03/12 05:15:54;;;;;;;;;;;1.00;92.20;;;;;;5089732;28;19924;-69
2022/03/12 05:18:22;;;;;;;;;;;1.00;92.30;;;;;;5089369;28;19924;-69
2022/03/12 05:20:49;;;;;;;;;;;1.00;92.20;;;;;;5088599;28;19924;-69
2022/03/12 05:23:16;;;;;;;;;;;1.00;92.20;;;;;;5088774;28;19951;-69
2022/03/12 05:25:45;;;;;;;;;;;1.10;92.20;;;;;;5082099;28;19925;-69
2022/03/12 05:28:15;;;;;;;;;;;1.20;92.10;;;;;;5083088;28;20038;-69
2022/03/12 05:30:46;;;;;;;;;;;1.20;92.00;;;;;;5072288;28;19951;-69
2022/03/12 05:33:13;;;;;;;;;;;1.20;92.10;;;;;;5083345;28;19930;-69
2022/03/12 05:35:41;;;;;;;;;;;1.20;92.10;;;;;;5086435;28;20015;-69
2022/03/12 05:38:09;;;;;;;;;;;1.20;92.10;;;;;;5070233;28;20359;-69
2022/03/12 05:40:39;;;;;;;;;;;1.10;92.10;;;;;;5084752;28;19942;-69
2022/03/12 05:43:15;;;;;;;;;;;1.10;92.10;;;;;;5070234;28;19967;-69
2022/03/12 05:45:45;;;;;;;;;;;1.10;92.20;;;;;;5080293;28;19925;-69
2022/03/12 05:48:13;;;;;;;;;;;1.00;92.20;;;;;;5082746;28;19925;-69
2022/03/12 05:50:40;;;;;;;;;;;0.90;92.30;;;;;;5081444;28;20394;-69
2022/03/12 05:53:10;;;;;;;;;;;0.90;92.50;;;;;;5088780;28;19928;-69
2022/03/12 05:55:47;;;;;;;;;;;0.90;92.60;;;;;;5088043;28;19928;-69
2022/03/12 05:58:17;;;;;;;;;;;0.80;92.60;;;;;;5089169;28;19931;-70
2022/03/12 06:00:44;;;;;;;;;;;0.90;92.70;;;;;;5075825;28;20654;-69
2022/03/12 06:03:11;;;;;;;;;;;0.90;92.60;;;;;;5077984;28;20308;-69
2022/03/12 06:05:40;;;;;;;;;;;0.90;92.50;;;;;;5091698;28;20366;-69
2022/03/12 06:08:08;;;;;;;;;;;1.00;92.80;;;;;;5089672;28;19935;-69
2022/03/12 06:10:37;;;;;;;;;;;1.10;92.40;;;;;;5090068;28;19971;-70
2022/03/12 06:13:06;;;;;;;;;;;1.20;92.40;;;;;;5073924;28;19924;-69
2022/03/12 06:15:36;;;;;;;;;;;1.30;92.30;;;;;;5088062;28;20016;-69
2022/03/12 06:18:03;;;;;;;;;;;1.40;92.20;;;;;;5073865;28;19932;-69
2022/03/12 06:20:29;;;;;;;;;;;1.50;92.10;;;;;;5073984;28;19928;-69
2022/03/12 06:22:56;;;;;;;;;;;1.60;92.00;;;;;;5085884;28;19999;-69
2022/03/12 06:25:23;;;;;;;;;;;1.70;92.10;;;;;;5075649;28;19925;-69
2022/03/12 06:27:59;;;;;;;;;;;1.90;91.90;;;;;;5073497;28;20297;-69
2022/03/12 06:30:26;;;;;;;;;;;2.10;91.80;;;;;;5087704;28;19924;-69
2022/03/12 06:32:55;;;;;;;;;;;2.30;91.60;;;;;;5077231;28;20546;-69
2022/03/12 06:35:23;;;;;;;;;;;2.50;91.40;;;;;;5079160;28;19928;-69
2022/03/12 06:37:49;;;;;;;;;;;2.70;91.20;;;;;;5089126;28;20023;-69
2022/03/12 06:40:18;;;;;;;;;;;2.90;91.10;;;;;;5077835;28;19927;-69
2022/03/12 06:42:45;;;;;;;;;;;3.20;90.80;;;;;;5091039;28;20015;-69
2022/03/12 06:45:21;;;;;;;;;;;3.60;90.60;;;;;;5092359;28;19930;-69
2022/03/12 06:47:48;;;;;;;;;;;4.10;90.30;;;;;;5088671;28;19958;-69
2022/03/12 06:50:17;;;;;;;;;;;4.50;90.00;;;;;;5091689;28;19989;-70
2022/03/12 06:52:47;;;;;;;;;;;4.90;89.30;;;;;;5075154;28;19925;-69
2022/03/12 06:55:15;;;;;;;;;;;5.20;87.80;;;;;;5085078;28;19924;-70
2022/03/12 06:57:47;;;;;;;;;;;5.60;87.20;;;;;;5074302;28;19928;-70
2022/03/12 07:00:18;;;;;;;;;;;6.10;86.60;;;;;;5072951;28;20282;-70
2022/03/12 07:02:45;;;;;;;;;;;6.40;85.50;;;;;;5072834;28;19925;-70
2022/03/12 07:05:12;;;;;;;;;;;6.50;85.00;;;;;;5075237;28;20340;-70
2022/03/12 07:07:38;;;;;;;;;;;6.80;84.80;;;;;;5091488;28;20399;-70
2022/03/12 07:10:06;;;;;;;;;;;7.10;84.40;;;;;;5074856;28;19924;-70
2022/03/12 07:12:33;;;;;;;;;;;7.30;84.00;;;;;;5079416;28;20279;-70
2022/03/12 07:15:00;;;;;;;;;;;7.50;83.60;;;;;;5080021;28;20393;-70
2022/03/12 07:17:26;;;;;;;;;;;7.50;83.10;;;;;;5078356;28;20010;-70
2022/03/12 07:19:53;;;;;;;;;;;7.80;83.10;;;;;;5091493;28;19952;-70
2022/03/12 07:22:19;;;;;;;;;;;7.90;82.50;;;;;;5088536;28;20070;-69
2022/03/12 07:24:46;;;;;;;;;;;8.10;82.50;;;;;;5076948;28;20027;-69
2022/03/12 07:27:13;;;;;;;;;;;8.10;82.00;;;;;;5082608;28;19970;-69
2022/03/12 07:29:40;;;;;;;;;;;8.20;81.80;;;;;;5072722;28;19925;-69
2022/03/12 07:32:07;;;;;;;;;;;8.30;81.70;;;;;;5079999;28;20009;-69
2022/03/12 07:34:34;;;;;;;;;;;8.20;81.50;;;;;;5073040;28;19967;-69
2022/03/12 07:37:00;;;;;;;;;;;8.10;82.10;;;;;;5076784;28;19924;-69
2022/03/12 07:39:27;;;;;;;;;;;8.30;82.00;;;;;;5089392;28;20023;-69
2022/03/12 07:41:54;;;;;;;;;;;8.50;82.10;;;;;;5090967;28;19924;-69
2022/03/12 07:44:23;;;;;;;;;;;8.70;81.40;;;;;;5091093;28;19947;-69
2022/03/12 07:46:49;;;;;;;;;;;8.80;81.40;;;;;;5085295;28;20413;-69
2022/03/12 07:49:16;;;;;;;;;;;9.20;81.80;;;;;;5072739;28;19925;-69
2022/03/12 07:51:43;;;;;;;;;;;9.10;80.90;;;;;;5071744;28;19951;-69
2022/03/12 07:54:13;;;;;;;;;;;9.00;81.10;;;;;;5071965;28;20491;-69
2022/03/12 07:56:39;;;;;;;;;;;9.00;80.70;;;;;;5071472;28;20028;-69
2022/03/12 07:59:10;;;;;;;;;;;8.90;81.60;;;;;;5084039;28;20418;-69
2022/03/12 08:01:37;;;;;;;;;;;9.00;81.40;;;;;;5087785;28;19930;-69
2022/03/12 08:04:05;;;;;;;;;;;9.20;81.50;;;;;;5090430;28;19924;-69
2022/03/12 08:06:33;;;;;;;;;;;9.90;81.40;;;;;;5073197;28;19943;-69
2022/03/12 08:09:00;;;;;;;;;;;10.30;79.90;;;;;;5077558;28;19924;-69
2022/03/12 08:11:28;;;;;;;;;;;10.30;79.60;;;;;;5080737;28;19929;-69
2022/03/12 08:13:58;;;;;;;;;;;9.90;81.20;;;;;;5082152;28;19935;-70
2022/03/12 08:16:26;;;;;;;;;;;10.00;80.60;;;;;;5080551;28;19930;-70
2022/03/12 08:18:53;;;;;;;;;;;9.70;82.20;;;;;;5078327;28;19954;-70
2022/03/12 08:21:20;;;;;;;;;;;9.80;83.00;;;;;;5079921;28;19924;-70
2022/03/12 08:23:47;;;;;;;;;;;10.00;81.30;;;;;;5076343;28;20394;-70
2022/03/12 08:26:15;;;;;;;;;;;9.90;81.80;;;;;;5082260;28;20011;-70
2022/03/12 08:28:42;;;;;;;;;;;9.80;82.80;;;;;;5083471;28;20423;-68
2022/03/12 08:31:09;;;;;;;;;;;9.90;83.00;;;;;;5081316;28;20023;-69
2022/03/12 08:33:37;;;;;;;;;;;10.10;81.40;;;;;;5079966;28;19939;-68
2022/03/12 08:36:05;;;;;;;;;;;10.00;81.30;;;;;;5090373;28;19970;-68
2022/03/12 08:38:32;;;;;;;;;;;9.60;83.40;;;;;;5078383;28;19932;-68
2022/03/12 08:40:59;;;;;;;;;;;9.40;83.10;;;;;;5073132;28;19931;-68
2022/03/12 08:43:25;;;;;;;;;;;9.70;83.90;;;;;;5071322;28;20015;-69
2022/03/12 08:46:00;;;;;;;;;;;9.80;82.80;;;;;;5079149;28;20375;-68
2022/03/12 08:48:27;;;;;;;;;;;10.00;81.80;;;;;;5070521;28;19932;-69
2022/03/12 08:50:56;;;;;;;;;;;10.10;82.00;;;;;;5077051;28;19931;-69
2022/03/12 08:53:27;;;;;;;;;;;10.10;81.70;;;;;;5078106;28;19928;-69
2022/03/12 08:56:00;;;;;;;;;;;10.40;82.10;;;;;;5085710;28;20293;-69
2022/03/12 08:58:27;;;;;;;;;;;10.50;81.60;;;;;;5087235;28;20349;-68
2022/03/12 09:00:54;;;;;;;;;;;10.20;82.30;;;;;;5083707;28;19924;-69
2022/03/12 09:03:22;;;;;;;;;;;10.50;81.90;;;;;;5070706;28;19985;-69
2022/03/12 09:05:49;;;;;;;;;;;11.00;81.80;;;;;;5076831;28;19935;-68
2022/03/12 09:08:16;;;;;;;;;;;11.00;80.90;;;;;;5072362;28;20011;-68
2022/03/12 09:10:43;;;;;;;;;;;11.20;81.30;;;;;;5078421;28;19955;-68
2022/03/12 09:13:13;;;;;;;;;;;11.40;81.40;;;;;;5070655;28;19925;-68
2022/03/12 09:15:41;;;;;;;;;;;11.30;81.20;;;;;;5081904;28;19924;-69
2022/03/12 09:18:09;;;;;;;;;;;11.10;81.80;;;;;;5081368;28;19976;-70
2022/03/12 09:20:43;;;;;;;;;;;10.80;81.80;;;;;;5071087;28;20019;-70
2022/03/12 09:23:10;;;;;;;;;;;10.90;82.10;;;;;;5087871;28;19930;-69
2022/03/12 09:25:37;;;;;;;;;;;10.90;82.40;;;;;;5071791;28;19924;-70
2022/03/12 09:28:03;;;;;;;;;;;11.00;83.10;;;;;;5070401;28;20379;-70
2022/03/12 09:30:30;;;;;;;;;;;11.20;82.70;;;;;;5071373;28;20379;-69
2022/03/12 09:32:57;;;;;;;;;;;11.00;82.50;;;;;;5070611;28;20015;-69
2022/03/12 09:35:24;;;;;;;;;;;11.00;82.80;;;;;;5084230;28;20437;-70
2022/03/12 09:37:51;;;;;;;;;;;10.80;83.30;;;;;;5070804;28;19925;-70
2022/03/12 09:40:18;;;;;;;;;;;11.00;83.20;;;;;;5074009;28;20194;-70
2022/03/12 09:42:45;;;;;;;;;;;11.30;84.60;;;;;;5074498;28;19983;-68
2022/03/12 09:45:12;;;;;;;;;;;11.90;83.20;;;;;;5074219;28;19947;-68
2022/03/12 09:47:40;;;;;;;;;;;12.00;84.40;;;;;;5073969;28;20345;-68
2022/03/12 09:50:07;;;;;;;;;;;12.30;83.00;;;;;;5075088;28;20008;-68
2022/03/12 09:52:33;;;;;;;;;;;12.50;83.00;;;;;;5079195;28;19977;-68
2022/03/12 09:55:01;;;;;;;;;;;13.00;82.20;;;;;;5093665;28;19930;-68
2022/03/12 09:57:28;;;;;;;;;;;12.80;82.30;;;;;;5092536;28;19974;-68
2022/03/12 09:59:56;;;;;;;;;;;12.50;83.10;;;;;;5089581;28;19950;-68
2022/03/12 10:02:23;;;;;;;;;;;12.40;81.80;;;;;;5074411;28;20011;-68
2022/03/12 10:04:49;;;;;;;;;;;12.20;82.40;;;;;;5084235;28;19997;-69
2022/03/12 10:07:17;;;;;;;;;;;12.40;83.20;;;;;;5077538;28;19931;-69
2022/03/12 10:09:43;;;;;;;;;;;12.70;82.50;;;;;;5082523;28;19924;-69
2022/03/12 10:12:10;;;;;;;;;;;12.90;81.70;;;;;;5092755;28;20106;-69
2022/03/12 10:14:37;;;;;;;;;;;12.80;82.10;;;;;;5083989;28;20563;-69
2022/03/12 10:17:03;;;;;;;;;;;12.90;81.50;;;;;;5086193;28;19930;-70
2022/03/12 10:19:31;;;;;;;;;;;13.30;82.10;;;;;;5090851;28;19967;-70
2022/03/12 10:21:57;;;;;;;;;;;13.00;81.60;;;;;;5073790;28;20015;-69
2022/03/12 10:24:24;;;;;;;;;;;13.40;81.70;;;;;;5073743;28;19962;-69
2022/03/12 10:26:51;;;;;;;;;;;13.10;81.40;;;;;;5081310;28;20010;-69
2022/03/12 10:29:19;;;;;;;;;;;12.90;82.10;;;;;;5085441;28;19935;-69
2022/03/12 10:31:46;;;;;;;;;;;13.00;82.50;;;;;;5089892;28;20014;-69
2022/03/12 10:34:18;;;;;;;;;;;12.70;81.90;;;;;;5087881;28;20054;-69
2022/03/12 10:36:45;;;;;;;;;;;12.80;83.00;;;;;;5086588;28;19931;-69
2022/03/12 10:39:12;;;;;;;;;;;13.20;82.70;;;;;;5077904;28;20431;-69
2022/03/12 10:41:39;;;;;;;;;;;;;;;;;;5083273;28;19967;-69
2022/03/12 10:44:07;;;;;;;;;;;13.70;81.30;;;;;;5086443;28;19927;-69
2022/03/12 10:46:35;;;;;;;;;;;13.70;81.20;;;;;;5075220;28;19929;-69
2022/03/12 10:49:03;;;;;;;;;;;14.20;81.80;;;;;;5090010;28;19928;-69
2022/03/12 10:51:31;;;;;;;;;;;14.80;80.10;;;;;;5091534;28;19934;-69
2022/03/12 10:54:09;;;;;;;;;;;15.40;80.20;;;;;;5073141;28;19935;-69
2022/03/12 10:56:48;;;;;;;;;;;15.70;78.60;;;;;;5084609;28;19958;-69
2022/03/12 10:59:22;;;;;;;;;;;15.30;79.00;;;;;;5090510;28;20011;-69
2022/03/12 11:01:57;;;;;;;;;;;14.90;79.60;;;;;;5072988;28;19924;-69
2022/03/12 11:04:26;;;;;;;;;;;14.90;80.70;;;;;;5088526;28;19928;-69
2022/03/12 11:06:59;;;;;;;;;;;14.70;81.30;;;;;;5079772;28;20009;-68
2022/03/12 11:09:36;;;;;;;;;;;15.40;80.10;;;;;;5084508;28;20039;-69
2022/03/12 11:12:25;;;;;;;;;;;15.90;79.40;;;;;;5081762;28;19924;-68
2022/03/12 11:15:15;;;;;;;;;;;16.50;80.50;;;;;;5083011;28;20301;-69
2022/03/12 11:17:44;;;;;;;;;;;16.60;81.00;;;;;;5063076;28;19924;-69
2022/03/12 11:20:21;;;;;;;;;;;16.80;78.60;;;;;;5085933;28;19924;-69
2022/03/12 11:22:49;;;;;;;;;;;16.10;79.00;;;;;;5077976;28;19934;-69
2022/03/12 11:25:22;;;;;;;;;;;16.40;79.60;;;;;;5072428;28;20027;-69
2022/03/12 11:27:50;;;;;;;;;;;16.50;79.60;;;;;;5071669;28;19959;-68
2022/03/12 11:30:21;;;;;;;;;;;16.60;79.00;;;;;;5087599;28;19988;-69
2022/03/12 11:33:03;;;;;;;;;;;17.50;79.50;;;;;;5072029;28;19925;-67
2022/03/12 11:35:34;;;;;;;;;;;18.10;79.00;;;;;;5078104;28;19972;-68
2022/03/12 11:38:33;;;;;;;;;;;18.30;78.20;;;;;;5078488;28;19924;-68
2022/03/12 11:41:03;;;;;;;;;;;18.00;78.20;;;;;;5028483;28;19925;-69
2022/03/12 11:43:34;;;;;;;;;;;18.30;78.30;;;;;;5029139;28;19928;-69
2022/03/12 11:46:03;;;;;;;;;;;18.50;78.70;;;;;;5012345;28;19936;-68
2022/03/12 11:48:31;;;;;;;;;;;19.10;78.10;;;;;;5028087;28;19925;-67
2022/03/12 11:51:01;;;;;;;;;;;19.00;78.00;;;;;;5028729;28;20417;-68
2022/03/12 11:53:36;;;;;;;;;;;18.60;77.10;;;;;;5027790;28;19971;-67
2022/03/12 11:56:13;;;;;;;;;;;18.10;78.80;;;;;;5028786;28;19964;-68
2022/03/12 11:58:40;;;;;;;;;;;17.90;79.40;;;;;;5010744;28;19965;-68
2022/03/12 12:01:07;;;;;;;;;;;17.70;79.40;;;;;;5028194;28;19925;-68
2022/03/12 12:03:36;;;;;;;;;;;17.90;78.90;;;;;;5028492;28;19932;-68
2022/03/12 12:06:05;;;;;;;;;;;18.30;79.00;;;;;;5027121;28;20405;-68
2022/03/12 12:08:32;;;;;;;;;;;18.70;78.90;;;;;;5026824;28;20019;-68
2022/03/12 12:11:02;;;;;;;;;;;18.30;78.70;;;;;;5027242;28;19925;-68
2022/03/12 12:13:31;;;;;;;;;;;18.10;79.60;;;;;;5028150;28;19951;-68
2022/03/12 12:15:58;;;;;;;;;;;17.60;81.40;;;;;;5038103;28;20008;-68
2022/03/12 12:18:25;;;;;;;;;;;17.60;80.10;;;;;;5083801;28;20429;-68
2022/03/12 12:20:52;;;;;;;;;;;18.30;80.70;;;;;;5089232;28;20263;-68
2022/03/12 12:23:19;;;;;;;;;;;18.90;79.10;;;;;;5071883;28;19928;-68
2022/03/12 12:25:47;;;;;;;;;;;19.30;79.20;;;;;;5071429;28;20444;-68
2022/03/12 12:28:21;;;;;;;;;;;20.20;79.20;;;;;;5085021;28;19928;-68
2022/03/12 12:30:53;;;;;;;;;;;20.90;78.10;;;;;;5079677;28;19925;-68
2022/03/12 12:33:22;;;;;;;;;;;21.10;78.20;;;;;;5080676;28;20019;-68
2022/03/12 12:35:50;;;;;;;;;;;21.40;79.00;;;;;;5089162;28;20417;-68
2022/03/12 12:38:18;;;;;;;;;;;21.40;77.90;;;;;;5077848;28;19931;-68
2022/03/12 12:41:03;;;;;;;;;;;20.50;78.20;;;;;;5077799;28;19928;-68
2022/03/12 12:43:34;;;;;;;;;;;19.80;78.50;;;;;;5084261;28;19943;-68
2022/03/12 12:46:08;;;;;;;;;;;19.40;79.20;;;;;;5070978;28;20469;-68
2022/03/12 12:48:38;;;;;;;;;;;19.80;79.70;;;;;;5070687;28;19970;-68
2022/03/12 12:51:12;;;;;;;;;;;20.60;78.50;;;;;;5073503;28;19924;-69
2022/03/12 12:53:43;;;;;;;;;;;20.90;77.90;;;;;;5089942;28;20335;-68
2022/03/12 12:56:20;;;;;;;;;;;20.90;78.40;;;;;;5076980;28;19928;-68
2022/03/12 12:58:47;;;;;;;;;;;21.00;78.50;;;;;;5070405;28;20590;-68
2022/03/12 13:01:18;;;;;;;;;;;20.70;78.90;;;;;;5088561;28;19931;-68
2022/03/12 13:03:52;;;;;;;;;;;20.20;79.80;;;;;;5080308;28;19932;-68
2022/03/12 13:06:39;;;;;;;;;;;19.40;79.90;;;;;;5082431;28;19971;-68
2022/03/12 13:09:11;;;;;;;;;;;18.20;80.20;;;;;;5073627;28;19935;-68
2022/03/12 13:11:39;;;;;;;;;;;17.90;81.20;;;;;;5082778;28;19931;-68
2022/03/12 13:14:16;;;;;;;;;;;17.10;81.80;;;;;;5069727;28;20116;-67
2022/03/12 13:16:51;;;;;;;;;;;16.50;82.80;;;;;;5074655;28;20010;-68
2022/03/12 13:19:30;;;;;;;;;;;16.80;83.50;;;;;;5087529;28;20288;-68
2022/03/12 13:22:04;;;;;;;;;;;17.40;82.90;;;;;;5070967;28;19924;-68
2022/03/12 13:24:41;;;;;;;;;;;17.60;82.90;;;;;;5072783;28;19977;-68
2022/03/12 13:27:27;;;;;;;;;;;17.30;84.00;;;;;;5070139;28;19925;-68
2022/03/12 13:30:25;;;;;;;;;;;17.10;83.80;;;;;;5079837;28;20015;-68
2022/03/12 13:32:53;;;;;;;;;;;17.20;84.30;;;;;;5025405;28;20008;-68
2022/03/12 13:35:21;;;;;;;;;;;18.40;84.10;;;;;;5025983;28;19929;-68
2022/03/12 13:37:49;;;;;;;;;;;19.20;82.70;;;;;;5026456;28;20644;-68
2022/03/12 13:40:16;;;;;;;;;;;18.80;82.10;;;;;;5017563;28;19925;-68
2022/03/12 13:42:47;;;;;;;;;;;18.50;83.00;;;;;;5027115;28;19932;-68
2022/03/12 13:45:17;;;;;;;;;;;18.80;83.00;;;;;;5025251;28;19939;-68
2022/03/12 13:47:48;;;;;;;;;;;19.30;82.10;;;;;;5027050;28;19925;-67
2022/03/12 13:50:16;;;;;;;;;;;20.00;82.30;;;;;;5025174;28;19964;-68
2022/03/12 13:52:44;;;;;;;;;;;20.10;81.20;;;;;;5025296;28;19931;-67
2022/03/12 13:55:11;;;;;;;;;;;19.60;81.10;;;;;;5010900;28;19976;-68
2022/03/12 13:57:41;;;;;;;;;;;19.70;82.10;;;;;;5026639;28;19925;-68
2022/03/12 14:00:09;;;;;;;;;;;20.10;81.70;;;;;;5016614;28;19925;-68
2022/03/12 14:02:44;;;;;;;;;;;21.10;81.30;;;;;;5024009;28;20536;-67
2022/03/12 14:05:26;;;;;;;;;;;21.60;80.90;;;;;;5026286;28;19925;-67
2022/03/12 14:07:53;;;;;;;;;;;22.00;81.10;;;;;;5026253;28;19961;-68
2022/03/12 14:10:24;;;;;;;;;;;22.50;80.90;;;;;;5066700;28;19929;-69
2022/03/12 14:13:00;;;;;;;;;;;22.80;81.00;;;;;;5076592;28;19960;-68
2022/03/12 14:15:30;;;;;;;;;;;23.20;81.60;;;;;;5071606;28;19928;-68
2022/03/12 14:17:59;;;;;;;;;;;23.30;80.80;;;;;;5069991;28;19925;-68
2022/03/12 14:20:26;;;;;;;;;;;23.40;80.90;;;;;;5074729;28;19928;-68
2022/03/12 14:22:56;;;;;;;;;;;23.40;80.60;;;;;;5070573;28;19929;-68
2022/03/12 14:25:42;;;;;;;;;;;22.60;80.30;;;;;;5085753;28;19928;-69
2022/03/12 14:28:09;;;;;;;;;;;22.50;81.00;;;;;;5081392;28;20018;-69
2022/03/12 14:30:36;;;;;;;;;;;22.50;81.80;;;;;;5082142;28;19927;-68
2022/03/12 14:33:04;;;;;;;;;;;22.30;81.70;;;;;;5085055;28;19925;-68
2022/03/12 14:35:34;;;;;;;;;;;21.50;82.10;;;;;;5073068;28;19932;-68
2022/03/12 14:38:06;;;;;;;;;;;20.90;82.90;;;;;;5076224;28;19931;-68